sensor_id;sensor_type;location;lat;lon;timestamp;P1;durP1;ratioP1;P2;durP2;ratioP2
33993;SDS011;20673;48.980;8.138;2023-07-20T00:02:09;5.07;;;1.67;;
33993;SDS011;20673;48.980;8.138;2023-07-20T00:04:35;3.27;;;2.22;;
33993;SDS011;20673;48.980;8.138;2023-07-20T00:07:01;3.10;;;1.92;;
33993;SDS011;20673;48.980;8.138;2023-07-20T00:09:27;3.43;;;1.90;;
33993;SDS011;20673;48.980;8.138;2023-07-20T00:11:53;3.70;;;2.08;;
33993;SDS011;20673;48.980;8.138;2023-07-20T00:14:20;4.40;;;2.27;;
33993;SDS011;20673;48.980;8.138;2023-07-20T00:16:46;3.23;;;1.87;;
33993;SDS011;20673;48.980;8.138;2023-07-20T00:19:15;4.40;;;2.12;;
33993;SDS011;20673;48.980;8.138;2023-07-20T00:21:41;7.03;;;2.20;;
33993;SDS011;20673;48.980;8.138;2023-07-20T00:24:08;2.95;;;1.82;;
33993;SDS011;20673;48.980;8.138;2023-07-20T00:26:34;3.40;;;1.87;;
33993;SDS011;20673;48.980;8.138;2023-07-20T00:29:00;3.00;;;2.00;;
33993;SDS011;20673;48.980;8.138;2023-07-20T00:31:26;4.17;;;2.37;;
33993;SDS011;20673;48.980;8.138;2023-07-20T00:33:54;4.30;;;1.90;;
33993;SDS011;20673;48.980;8.138;2023-07-20T00:36:20;5.28;;;2.15;;
33993;SDS011;20673;48.980;8.138;2023-07-20T00:38:46;3.90;;;2.17;;
33993;SDS011;20673;48.980;8.138;2023-07-20T00:41:12;4.50;;;2.17;;
33993;SDS011;20673;48.980;8.138;2023-07-20T00:43:39;4.62;;;1.90;;
33993;SDS011;20673;48.980;8.138;2023-07-20T00:46:07;3.53;;;2.20;;
33993;SDS011;20673;48.980;8.138;2023-07-20T00:48:34;4.93;;;2.17;;
33993;SDS011;20673;48.980;8.138;2023-07-20T00:51:01;4.50;;;2.03;;
33993;SDS011;20673;48.980;8.138;2023-07-20T00:53:28;3.37;;;1.80;;
33993;SDS011;20673;48.980;8.138;2023-07-20T00:55:54;3.97;;;1.87;;
33993;SDS011;20673;48.980;8.138;2023-07-20T00:58:21;6.37;;;2.23;;
33993;SDS011;20673;48.980;8.138;2023-07-20T01:00:49;3.13;;;1.87;;
33993;SDS011;20673;48.980;8.138;2023-07-20T01:03:15;2.73;;;1.93;;
33993;SDS011;20673;48.980;8.138;2023-07-20T01:08:43;4.87;;;2.03;;
33993;SDS011;20673;48.980;8.138;2023-07-20T01:11:38;2.87;;;2.10;;
33993;SDS011;20673;48.980;8.138;2023-07-20T01:16:34;3.47;;;1.90;;
33993;SDS011;20673;48.980;8.138;2023-07-20T01:19:00;6.50;;;2.50;;
33993;SDS011;20673;48.980;8.138;2023-07-20T01:21:31;2.80;;;1.97;;
33993;SDS011;20673;48.980;8.138;2023-07-20T01:27:34;4.17;;;2.42;;
33993;SDS011;20673;48.980;8.138;2023-07-20T01:33:37;4.80;;;2.30;;
33993;SDS011;20673;48.980;8.138;2023-07-20T01:36:05;3.60;;;2.00;;
33993;SDS011;20673;48.980;8.138;2023-07-20T01:38:34;2.70;;;1.95;;
33993;SDS011;20673;48.980;8.138;2023-07-20T01:41:02;4.97;;;2.37;;
33993;SDS011;20673;48.980;8.138;2023-07-20T01:43:29;3.40;;;2.10;;
33993;SDS011;20673;48.980;8.138;2023-07-20T01:45:56;3.03;;;2.20;;
33993;SDS011;20673;48.980;8.138;2023-07-20T01:48:22;5.87;;;2.30;;
33993;SDS011;20673;48.980;8.138;2023-07-20T01:50:48;2.58;;;1.87;;
33993;SDS011;20673;48.980;8.138;2023-07-20T01:53:14;3.50;;;2.35;;
33993;SDS011;20673;48.980;8.138;2023-07-20T01:55:40;4.40;;;2.13;;
33993;SDS011;20673;48.980;8.138;2023-07-20T01:58:06;4.47;;;2.33;;
33993;SDS011;20673;48.980;8.138;2023-07-20T02:00:33;7.67;;;1.92;;
33993;SDS011;20673;48.980;8.138;2023-07-20T02:02:59;3.92;;;2.05;;
33993;SDS011;20673;48.980;8.138;2023-07-20T02:05:25;3.37;;;2.60;;
33993;SDS011;20673;48.980;8.138;2023-07-20T02:07:51;3.90;;;2.62;;
33993;SDS011;20673;48.980;8.138;2023-07-20T02:10:17;3.98;;;2.65;;
33993;SDS011;20673;48.980;8.138;2023-07-20T02:12:43;5.62;;;2.95;;
33993;SDS011;20673;48.980;8.138;2023-07-20T02:15:11;5.47;;;3.47;;
33993;SDS011;20673;48.980;8.138;2023-07-20T02:17:48;8.50;;;4.22;;
33993;SDS011;20673;48.980;8.138;2023-07-20T02:20:15;7.60;;;4.65;;
33993;SDS011;20673;48.980;8.138;2023-07-20T02:22:44;6.80;;;4.35;;
33993;SDS011;20673;48.980;8.138;2023-07-20T02:25:11;10.00;;;5.50;;
33993;SDS011;20673;48.980;8.138;2023-07-20T02:27:38;7.92;;;5.30;;
33993;SDS011;20673;48.980;8.138;2023-07-20T02:30:07;6.87;;;4.72;;
33993;SDS011;20673;48.980;8.138;2023-07-20T02:32:37;7.28;;;3.80;;
33993;SDS011;20673;48.980;8.138;2023-07-20T02:35:04;3.87;;;2.90;;
33993;SDS011;20673;48.980;8.138;2023-07-20T02:37:31;5.05;;;2.92;;
33993;SDS011;20673;48.980;8.138;2023-07-20T02:39:58;6.28;;;2.67;;
33993;SDS011;20673;48.980;8.138;2023-07-20T02:42:24;3.83;;;2.47;;
33993;SDS011;20673;48.980;8.138;2023-07-20T02:44:51;4.05;;;2.50;;
33993;SDS011;20673;48.980;8.138;2023-07-20T02:47:17;5.37;;;2.50;;
33993;SDS011;20673;48.980;8.138;2023-07-20T02:49:43;5.28;;;2.20;;
33993;SDS011;20673;48.980;8.138;2023-07-20T02:52:09;4.90;;;2.58;;
33993;SDS011;20673;48.980;8.138;2023-07-20T02:54:35;4.83;;;2.87;;
33993;SDS011;20673;48.980;8.138;2023-07-20T02:57:01;4.22;;;2.27;;
33993;SDS011;20673;48.980;8.138;2023-07-20T02:59:28;4.70;;;2.50;;
33993;SDS011;20673;48.980;8.138;2023-07-20T03:01:55;4.50;;;2.90;;
33993;SDS011;20673;48.980;8.138;2023-07-20T03:04:21;6.35;;;2.30;;
33993;SDS011;20673;48.980;8.138;2023-07-20T03:06:47;4.53;;;2.42;;
33993;SDS011;20673;48.980;8.138;2023-07-20T03:09:13;4.75;;;2.90;;
33993;SDS011;20673;48.980;8.138;2023-07-20T03:11:40;5.05;;;2.90;;
33993;SDS011;20673;48.980;8.138;2023-07-20T03:14:07;4.67;;;2.83;;
33993;SDS011;20673;48.980;8.138;2023-07-20T03:16:33;3.37;;;2.52;;
33993;SDS011;20673;48.980;8.138;2023-07-20T03:18:59;4.67;;;2.45;;
33993;SDS011;20673;48.980;8.138;2023-07-20T03:21:26;2.70;;;2.27;;
33993;SDS011;20673;48.980;8.138;2023-07-20T03:23:52;3.95;;;2.75;;
33993;SDS011;20673;48.980;8.138;2023-07-20T03:26:19;4.45;;;2.33;;
33993;SDS011;20673;48.980;8.138;2023-07-20T03:28:45;5.17;;;2.70;;
33993;SDS011;20673;48.980;8.138;2023-07-20T03:31:11;4.28;;;2.60;;
33993;SDS011;20673;48.980;8.138;2023-07-20T03:33:37;4.45;;;2.77;;
33993;SDS011;20673;48.980;8.138;2023-07-20T03:36:04;3.72;;;2.65;;
33993;SDS011;20673;48.980;8.138;2023-07-20T03:38:30;3.52;;;2.52;;
33993;SDS011;20673;48.980;8.138;2023-07-20T03:40:57;3.62;;;2.98;;
33993;SDS011;20673;48.980;8.138;2023-07-20T03:43:27;5.08;;;2.90;;
33993;SDS011;20673;48.980;8.138;2023-07-20T03:45:54;4.83;;;2.55;;
33993;SDS011;20673;48.980;8.138;2023-07-20T03:48:22;3.98;;;2.70;;
33993;SDS011;20673;48.980;8.138;2023-07-20T03:50:50;6.25;;;2.90;;
33993;SDS011;20673;48.980;8.138;2023-07-20T03:53:18;6.10;;;2.87;;
33993;SDS011;20673;48.980;8.138;2023-07-20T03:55:45;4.40;;;2.90;;
33993;SDS011;20673;48.980;8.138;2023-07-20T03:58:16;4.03;;;3.10;;
33993;SDS011;20673;48.980;8.138;2023-07-20T04:00:47;3.98;;;2.70;;
33993;SDS011;20673;48.980;8.138;2023-07-20T04:03:18;6.40;;;2.65;;
33993;SDS011;20673;48.980;8.138;2023-07-20T04:05:45;3.50;;;2.50;;
33993;SDS011;20673;48.980;8.138;2023-07-20T04:08:11;5.55;;;2.67;;
33993;SDS011;20673;48.980;8.138;2023-07-20T04:10:38;4.20;;;2.70;;
33993;SDS011;20673;48.980;8.138;2023-07-20T04:13:05;4.00;;;2.77;;
33993;SDS011;20673;48.980;8.138;2023-07-20T04:15:31;4.45;;;2.50;;
33993;SDS011;20673;48.980;8.138;2023-07-20T04:17:57;3.70;;;2.60;;
33993;SDS011;20673;48.980;8.138;2023-07-20T04:20:24;4.00;;;2.40;;
33993;SDS011;20673;48.980;8.138;2023-07-20T04:22:50;5.15;;;3.45;;
33993;SDS011;20673;48.980;8.138;2023-07-20T04:25:17;4.72;;;2.65;;
33993;SDS011;20673;48.980;8.138;2023-07-20T04:27:44;3.70;;;2.55;;
33993;SDS011;20673;48.980;8.138;2023-07-20T04:30:10;4.55;;;2.80;;
33993;SDS011;20673;48.980;8.138;2023-07-20T04:32:38;5.30;;;2.85;;
33993;SDS011;20673;48.980;8.138;2023-07-20T04:35:06;5.73;;;3.07;;
33993;SDS011;20673;48.980;8.138;2023-07-20T04:37:33;5.08;;;2.75;;
33993;SDS011;20673;48.980;8.138;2023-07-20T04:39:59;4.87;;;3.27;;
33993;SDS011;20673;48.980;8.138;2023-07-20T04:42:26;7.40;;;3.00;;
33993;SDS011;20673;48.980;8.138;2023-07-20T04:44:52;5.42;;;3.22;;
33993;SDS011;20673;48.980;8.138;2023-07-20T04:47:18;4.35;;;2.67;;
33993;SDS011;20673;48.980;8.138;2023-07-20T04:49:44;3.72;;;2.37;;
33993;SDS011;20673;48.980;8.138;2023-07-20T04:52:10;4.35;;;2.72;;
33993;SDS011;20673;48.980;8.138;2023-07-20T04:54:36;3.92;;;2.87;;
33993;SDS011;20673;48.980;8.138;2023-07-20T04:57:02;6.33;;;3.08;;
33993;SDS011;20673;48.980;8.138;2023-07-20T04:59:30;3.12;;;2.67;;
33993;SDS011;20673;48.980;8.138;2023-07-20T05:01:58;5.37;;;3.20;;
33993;SDS011;20673;48.980;8.138;2023-07-20T05:04:24;6.10;;;3.10;;
33993;SDS011;20673;48.980;8.138;2023-07-20T05:06:50;6.50;;;3.35;;
33993;SDS011;20673;48.980;8.138;2023-07-20T05:09:16;4.67;;;3.37;;
33993;SDS011;20673;48.980;8.138;2023-07-20T05:11:42;4.42;;;3.20;;
33993;SDS011;20673;48.980;8.138;2023-07-20T05:14:10;6.90;;;3.60;;
33993;SDS011;20673;48.980;8.138;2023-07-20T05:16:36;3.90;;;3.20;;
33993;SDS011;20673;48.980;8.138;2023-07-20T05:19:02;8.83;;;3.52;;
33993;SDS011;20673;48.980;8.138;2023-07-20T05:21:28;6.05;;;3.30;;
33993;SDS011;20673;48.980;8.138;2023-07-20T05:23:55;5.20;;;3.65;;
33993;SDS011;20673;48.980;8.138;2023-07-20T05:26:21;5.90;;;3.47;;
33993;SDS011;20673;48.980;8.138;2023-07-20T05:28:47;6.47;;;4.17;;
33993;SDS011;20673;48.980;8.138;2023-07-20T05:31:13;6.30;;;3.20;;
33993;SDS011;20673;48.980;8.138;2023-07-20T05:33:39;4.47;;;3.83;;
33993;SDS011;20673;48.980;8.138;2023-07-20T05:36:05;6.50;;;4.40;;
33993;SDS011;20673;48.980;8.138;2023-07-20T05:38:31;6.23;;;3.80;;
33993;SDS011;20673;48.980;8.138;2023-07-20T05:40:59;7.10;;;3.62;;
33993;SDS011;20673;48.980;8.138;2023-07-20T05:43:29;5.90;;;4.00;;
33993;SDS011;20673;48.980;8.138;2023-07-20T05:45:56;4.90;;;3.67;;
33993;SDS011;20673;48.980;8.138;2023-07-20T05:48:23;7.57;;;3.77;;
33993;SDS011;20673;48.980;8.138;2023-07-20T05:50:49;5.80;;;3.10;;
33993;SDS011;20673;48.980;8.138;2023-07-20T05:53:15;5.17;;;3.47;;
33993;SDS011;20673;48.980;8.138;2023-07-20T05:55:41;6.77;;;4.20;;
33993;SDS011;20673;48.980;8.138;2023-07-20T05:58:07;5.23;;;3.87;;
33993;SDS011;20673;48.980;8.138;2023-07-20T06:00:33;8.13;;;4.03;;
33993;SDS011;20673;48.980;8.138;2023-07-20T06:03:00;5.63;;;3.57;;
33993;SDS011;20673;48.980;8.138;2023-07-20T06:05:26;9.70;;;3.75;;
33993;SDS011;20673;48.980;8.138;2023-07-20T06:07:52;6.33;;;3.83;;
33993;SDS011;20673;48.980;8.138;2023-07-20T06:10:20;6.80;;;3.45;;
33993;SDS011;20673;48.980;8.138;2023-07-20T06:12:46;4.33;;;2.90;;
33993;SDS011;20673;48.980;8.138;2023-07-20T06:15:24;4.87;;;2.85;;
33993;SDS011;20673;48.980;8.138;2023-07-20T06:17:56;9.20;;;3.30;;
33993;SDS011;20673;48.980;8.138;2023-07-20T06:20:23;5.43;;;3.50;;
33993;SDS011;20673;48.980;8.138;2023-07-20T06:22:50;5.60;;;2.50;;
33993;SDS011;20673;48.980;8.138;2023-07-20T06:25:16;5.67;;;2.90;;
33993;SDS011;20673;48.980;8.138;2023-07-20T06:27:42;4.17;;;2.77;;
33993;SDS011;20673;48.980;8.138;2023-07-20T06:30:10;6.77;;;2.87;;
33993;SDS011;20673;48.980;8.138;2023-07-20T06:32:38;6.87;;;2.90;;
33993;SDS011;20673;48.980;8.138;2023-07-20T06:35:05;5.27;;;2.50;;
33993;SDS011;20673;48.980;8.138;2023-07-20T06:37:32;3.00;;;2.20;;
33993;SDS011;20673;48.980;8.138;2023-07-20T06:39:58;5.97;;;2.50;;
33993;SDS011;20673;48.980;8.138;2023-07-20T06:42:24;4.30;;;2.53;;
33993;SDS011;20673;48.980;8.138;2023-07-20T06:44:50;6.40;;;2.45;;
33993;SDS011;20673;48.980;8.138;2023-07-20T06:47:16;5.28;;;2.62;;
33993;SDS011;20673;48.980;8.138;2023-07-20T06:49:42;5.03;;;2.27;;
33993;SDS011;20673;48.980;8.138;2023-07-20T06:52:08;3.30;;;2.15;;
33993;SDS011;20673;48.980;8.138;2023-07-20T06:54:34;3.65;;;2.22;;
33993;SDS011;20673;48.980;8.138;2023-07-20T06:57:00;7.30;;;2.45;;
33993;SDS011;20673;48.980;8.138;2023-07-20T06:59:27;4.35;;;2.12;;
33993;SDS011;20673;48.980;8.138;2023-07-20T07:01:53;2.77;;;1.77;;
33993;SDS011;20673;48.980;8.138;2023-07-20T07:04:19;5.15;;;2.10;;
33993;SDS011;20673;48.980;8.138;2023-07-20T07:06:45;7.90;;;2.60;;
33993;SDS011;20673;48.980;8.138;2023-07-20T07:09:11;5.65;;;2.40;;
33993;SDS011;20673;48.980;8.138;2023-07-20T07:11:37;4.58;;;2.52;;
33993;SDS011;20673;48.980;8.138;2023-07-20T07:14:03;6.67;;;1.95;;
33993;SDS011;20673;48.980;8.138;2023-07-20T07:16:29;5.25;;;2.30;;
33993;SDS011;20673;48.980;8.138;2023-07-20T07:18:55;3.72;;;2.00;;
33993;SDS011;20673;48.980;8.138;2023-07-20T07:21:22;4.42;;;2.58;;
33993;SDS011;20673;48.980;8.138;2023-07-20T07:23:48;5.08;;;2.08;;
33993;SDS011;20673;48.980;8.138;2023-07-20T07:26:14;3.75;;;2.00;;
33993;SDS011;20673;48.980;8.138;2023-07-20T07:28:41;5.22;;;2.67;;
33993;SDS011;20673;48.980;8.138;2023-07-20T07:31:07;4.70;;;2.10;;
33993;SDS011;20673;48.980;8.138;2023-07-20T07:33:33;3.42;;;1.52;;
33993;SDS011;20673;48.980;8.138;2023-07-20T07:36:00;3.27;;;1.77;;
33993;SDS011;20673;48.980;8.138;2023-07-20T07:38:26;4.22;;;2.05;;
33993;SDS011;20673;48.980;8.138;2023-07-20T07:40:52;4.87;;;2.05;;
33993;SDS011;20673;48.980;8.138;2023-07-20T07:43:18;4.50;;;1.75;;
33993;SDS011;20673;48.980;8.138;2023-07-20T07:45:44;4.90;;;2.00;;
33993;SDS011;20673;48.980;8.138;2023-07-20T07:48:10;4.65;;;2.22;;
33993;SDS011;20673;48.980;8.138;2023-07-20T07:50:38;4.90;;;1.92;;
33993;SDS011;20673;48.980;8.138;2023-07-20T07:53:05;4.85;;;2.27;;
33993;SDS011;20673;48.980;8.138;2023-07-20T07:55:34;5.37;;;1.82;;
33993;SDS011;20673;48.980;8.138;2023-07-20T07:58:01;6.22;;;2.52;;
33993;SDS011;20673;48.980;8.138;2023-07-20T08:00:27;4.05;;;1.98;;
33993;SDS011;20673;48.980;8.138;2023-07-20T08:02:53;4.47;;;1.72;;
33993;SDS011;20673;48.980;8.138;2023-07-20T08:05:19;5.35;;;1.90;;
33993;SDS011;20673;48.980;8.138;2023-07-20T08:07:45;8.03;;;1.75;;
33993;SDS011;20673;48.980;8.138;2023-07-20T08:10:11;3.05;;;1.60;;
33993;SDS011;20673;48.980;8.138;2023-07-20T08:12:38;4.42;;;1.65;;
33993;SDS011;20673;48.980;8.138;2023-07-20T08:15:04;4.33;;;1.60;;
33993;SDS011;20673;48.980;8.138;2023-07-20T08:17:31;5.28;;;2.08;;
33993;SDS011;20673;48.980;8.138;2023-07-20T08:19:57;5.60;;;1.47;;
33993;SDS011;20673;48.980;8.138;2023-07-20T08:22:23;4.45;;;1.65;;
33993;SDS011;20673;48.980;8.138;2023-07-20T08:24:49;4.75;;;1.72;;
33993;SDS011;20673;48.980;8.138;2023-07-20T08:27:15;2.92;;;1.60;;
33993;SDS011;20673;48.980;8.138;2023-07-20T08:29:41;3.47;;;1.75;;
33993;SDS011;20673;48.980;8.138;2023-07-20T08:32:08;3.40;;;1.82;;
33993;SDS011;20673;48.980;8.138;2023-07-20T08:34:34;2.55;;;1.70;;
33993;SDS011;20673;48.980;8.138;2023-07-20T08:37:00;5.80;;;1.80;;
33993;SDS011;20673;48.980;8.138;2023-07-20T08:39:26;2.50;;;1.52;;
33993;SDS011;20673;48.980;8.138;2023-07-20T08:41:52;3.35;;;1.70;;
33993;SDS011;20673;48.980;8.138;2023-07-20T08:44:21;4.28;;;1.60;;
33993;SDS011;20673;48.980;8.138;2023-07-20T08:46:48;3.52;;;1.95;;
33993;SDS011;20673;48.980;8.138;2023-07-20T08:49:16;2.80;;;1.70;;
33993;SDS011;20673;48.980;8.138;2023-07-20T08:51:43;4.10;;;1.90;;
33993;SDS011;20673;48.980;8.138;2023-07-20T08:54:12;2.25;;;1.27;;
33993;SDS011;20673;48.980;8.138;2023-07-20T08:56:40;2.70;;;1.65;;
33993;SDS011;20673;48.980;8.138;2023-07-20T08:59:08;4.95;;;2.00;;
33993;SDS011;20673;48.980;8.138;2023-07-20T09:01:35;4.70;;;1.82;;
33993;SDS011;20673;48.980;8.138;2023-07-20T09:04:03;3.33;;;1.62;;
33993;SDS011;20673;48.980;8.138;2023-07-20T09:06:30;5.37;;;2.02;;
33993;SDS011;20673;48.980;8.138;2023-07-20T09:08:56;3.87;;;1.98;;
33993;SDS011;20673;48.980;8.138;2023-07-20T09:11:22;4.20;;;1.82;;
33993;SDS011;20673;48.980;8.138;2023-07-20T09:14:01;3.33;;;1.60;;
33993;SDS011;20673;48.980;8.138;2023-07-20T09:16:54;2.08;;;1.60;;
33993;SDS011;20673;48.980;8.138;2023-07-20T09:19:17;3.33;;;1.95;;
33993;SDS011;20673;48.980;8.138;2023-07-20T09:21:44;4.67;;;1.82;;
33993;SDS011;20673;48.980;8.138;2023-07-20T09:24:13;3.08;;;1.80;;
33993;SDS011;20673;48.980;8.138;2023-07-20T09:26:47;3.90;;;1.65;;
33993;SDS011;20673;48.980;8.138;2023-07-20T09:29:19;2.45;;;1.45;;
33993;SDS011;20673;48.980;8.138;2023-07-20T09:32:01;3.22;;;1.70;;
33993;SDS011;20673;48.980;8.138;2023-07-20T09:34:29;3.02;;;1.70;;
33993;SDS011;20673;48.980;8.138;2023-07-20T09:36:59;2.83;;;1.75;;
33993;SDS011;20673;48.980;8.138;2023-07-20T09:39:26;4.33;;;1.45;;
33993;SDS011;20673;48.980;8.138;2023-07-20T09:41:53;2.40;;;1.27;;
33993;SDS011;20673;48.980;8.138;2023-07-20T09:44:19;1.47;;;1.20;;
33993;SDS011;20673;48.980;8.138;2023-07-20T09:46:46;2.20;;;1.37;;
33993;SDS011;20673;48.980;8.138;2023-07-20T09:49:14;3.67;;;1.32;;
33993;SDS011;20673;48.980;8.138;2023-07-20T09:51:42;1.92;;;1.47;;
33993;SDS011;20673;48.980;8.138;2023-07-20T09:54:11;4.87;;;1.72;;
33993;SDS011;20673;48.980;8.138;2023-07-20T09:56:39;2.67;;;1.52;;
33993;SDS011;20673;48.980;8.138;2023-07-20T09:59:06;2.00;;;1.20;;
33993;SDS011;20673;48.980;8.138;2023-07-20T10:01:32;4.83;;;1.60;;
33993;SDS011;20673;48.980;8.138;2023-07-20T10:04:03;4.20;;;1.40;;
33993;SDS011;20673;48.980;8.138;2023-07-20T10:06:35;2.60;;;1.70;;
33993;SDS011;20673;48.980;8.138;2023-07-20T10:09:07;2.25;;;1.10;;
33993;SDS011;20673;48.980;8.138;2023-07-20T10:11:38;4.53;;;1.37;;
33993;SDS011;20673;48.980;8.138;2023-07-20T10:14:09;2.75;;;1.52;;
33993;SDS011;20673;48.980;8.138;2023-07-20T10:16:46;3.55;;;1.50;;
33993;SDS011;20673;48.980;8.138;2023-07-20T10:19:22;2.60;;;1.30;;
33993;SDS011;20673;48.980;8.138;2023-07-20T10:22:07;1.72;;;1.15;;
33993;SDS011;20673;48.980;8.138;2023-07-20T10:24:45;2.87;;;1.77;;
33993;SDS011;20673;48.980;8.138;2023-07-20T10:29:40;1.85;;;1.30;;
33993;SDS011;20673;48.980;8.138;2023-07-20T10:32:08;3.22;;;1.10;;
33993;SDS011;20673;48.980;8.138;2023-07-20T10:34:35;2.92;;;1.42;;
33993;SDS011;20673;48.980;8.138;2023-07-20T10:37:02;1.75;;;1.00;;
33993;SDS011;20673;48.980;8.138;2023-07-20T10:39:30;2.25;;;1.22;;
33993;SDS011;20673;48.980;8.138;2023-07-20T10:42:01;3.60;;;1.52;;
33993;SDS011;20673;48.980;8.138;2023-07-20T10:44:30;3.77;;;1.55;;
33993;SDS011;20673;48.980;8.138;2023-07-20T10:47:00;2.72;;;1.30;;
33993;SDS011;20673;48.980;8.138;2023-07-20T10:49:32;2.65;;;1.37;;
33993;SDS011;20673;48.980;8.138;2023-07-20T10:52:03;2.80;;;1.22;;
33993;SDS011;20673;48.980;8.138;2023-07-20T10:54:33;1.77;;;1.10;;
33993;SDS011;20673;48.980;8.138;2023-07-20T10:57:21;1.32;;;0.90;;
33993;SDS011;20673;48.980;8.138;2023-07-20T10:59:52;2.67;;;1.10;;
33993;SDS011;20673;48.980;8.138;2023-07-20T11:02:23;3.58;;;1.32;;
33993;SDS011;20673;48.980;8.138;2023-07-20T11:04:50;5.50;;;1.37;;
33993;SDS011;20673;48.980;8.138;2023-07-20T11:07:17;1.92;;;1.20;;
33993;SDS011;20673;48.980;8.138;2023-07-20T11:09:46;1.82;;;1.27;;
33993;SDS011;20673;48.980;8.138;2023-07-20T11:12:16;1.70;;;1.20;;
33993;SDS011;20673;48.980;8.138;2023-07-20T11:14:51;2.27;;;1.10;;
33993;SDS011;20673;48.980;8.138;2023-07-20T11:17:28;1.47;;;1.30;;
33993;SDS011;20673;48.980;8.138;2023-07-20T11:19:57;3.15;;;1.40;;
33993;SDS011;20673;48.980;8.138;2023-07-20T11:22:27;2.05;;;1.22;;
33993;SDS011;20673;48.980;8.138;2023-07-20T11:24:57;2.00;;;0.90;;
33993;SDS011;20673;48.980;8.138;2023-07-20T11:27:24;2.33;;;1.20;;
33993;SDS011;20673;48.980;8.138;2023-07-20T11:29:50;2.45;;;1.30;;
33993;SDS011;20673;48.980;8.138;2023-07-20T11:32:20;1.70;;;1.25;;
33993;SDS011;20673;48.980;8.138;2023-07-20T11:34:47;2.07;;;1.43;;
33993;SDS011;20673;48.980;8.138;2023-07-20T11:37:14;2.10;;;1.05;;
33993;SDS011;20673;48.980;8.138;2023-07-20T11:39:41;2.27;;;1.02;;
33993;SDS011;20673;48.980;8.138;2023-07-20T11:42:08;2.15;;;1.45;;
33993;SDS011;20673;48.980;8.138;2023-07-20T11:44:34;3.42;;;1.15;;
33993;SDS011;20673;48.980;8.138;2023-07-20T11:47:04;2.08;;;0.90;;
33993;SDS011;20673;48.980;8.138;2023-07-20T11:49:37;1.50;;;0.90;;
33993;SDS011;20673;48.980;8.138;2023-07-20T11:52:11;1.80;;;1.27;;
33993;SDS011;20673;48.980;8.138;2023-07-20T11:54:42;1.35;;;1.05;;
33993;SDS011;20673;48.980;8.138;2023-07-20T11:57:18;1.47;;;1.10;;
33993;SDS011;20673;48.980;8.138;2023-07-20T11:59:52;1.70;;;0.90;;
33993;SDS011;20673;48.980;8.138;2023-07-20T12:02:22;1.70;;;1.10;;
33993;SDS011;20673;48.980;8.138;2023-07-20T12:04:52;2.70;;;1.10;;
33993;SDS011;20673;48.980;8.138;2023-07-20T12:07:20;3.62;;;1.10;;
33993;SDS011;20673;48.980;8.138;2023-07-20T12:12:38;1.55;;;0.80;;
33993;SDS011;20673;48.980;8.138;2023-07-20T12:15:15;1.55;;;0.80;;
33993;SDS011;20673;48.980;8.138;2023-07-20T12:17:51;1.45;;;0.80;;
33993;SDS011;20673;48.980;8.138;2023-07-20T12:20:24;2.72;;;1.10;;
33993;SDS011;20673;48.980;8.138;2023-07-20T12:23:08;3.95;;;1.07;;
33993;SDS011;20673;48.980;8.138;2023-07-20T12:25:38;1.75;;;1.30;;
33993;SDS011;20673;48.980;8.138;2023-07-20T12:28:09;1.95;;;1.00;;
33993;SDS011;20673;48.980;8.138;2023-07-20T12:30:39;1.17;;;1.00;;
33993;SDS011;20673;48.980;8.138;2023-07-20T12:33:07;1.50;;;1.10;;
33993;SDS011;20673;48.980;8.138;2023-07-20T12:35:34;1.20;;;1.10;;
33993;SDS011;20673;48.980;8.138;2023-07-20T12:38:00;1.85;;;1.02;;
33993;SDS011;20673;48.980;8.138;2023-07-20T12:40:27;1.60;;;0.93;;
33993;SDS011;20673;48.980;8.138;2023-07-20T12:42:53;1.10;;;0.90;;
33993;SDS011;20673;48.980;8.138;2023-07-20T12:45:20;1.42;;;1.07;;
33993;SDS011;20673;48.980;8.138;2023-07-20T12:47:47;1.80;;;1.10;;
33993;SDS011;20673;48.980;8.138;2023-07-20T12:50:13;2.35;;;0.90;;
33993;SDS011;20673;48.980;8.138;2023-07-20T12:52:40;1.47;;;1.00;;
33993;SDS011;20673;48.980;8.138;2023-07-20T12:55:06;1.30;;;1.20;;
33993;SDS011;20673;48.980;8.138;2023-07-20T12:57:35;1.32;;;1.00;;
33993;SDS011;20673;48.980;8.138;2023-07-20T13:00:03;1.40;;;0.80;;
33993;SDS011;20673;48.980;8.138;2023-07-20T13:02:33;1.72;;;1.00;;
33993;SDS011;20673;48.980;8.138;2023-07-20T13:04:59;0.90;;;0.85;;
33993;SDS011;20673;48.980;8.138;2023-07-20T13:07:37;1.35;;;0.93;;
33993;SDS011;20673;48.980;8.138;2023-07-20T13:10:03;1.37;;;0.95;;
33993;SDS011;20673;48.980;8.138;2023-07-20T13:12:31;1.30;;;1.07;;
33993;SDS011;20673;48.980;8.138;2023-07-20T13:15:00;1.57;;;0.90;;
33993;SDS011;20673;48.980;8.138;2023-07-20T13:17:30;1.50;;;0.93;;
33993;SDS011;20673;48.980;8.138;2023-07-20T13:19:56;1.37;;;0.93;;
33993;SDS011;20673;48.980;8.138;2023-07-20T13:22:22;1.62;;;1.10;;
33993;SDS011;20673;48.980;8.138;2023-07-20T13:24:48;2.10;;;1.25;;
33993;SDS011;20673;48.980;8.138;2023-07-20T13:27:19;2.67;;;1.12;;
33993;SDS011;20673;48.980;8.138;2023-07-20T13:29:45;1.67;;;1.10;;
33993;SDS011;20673;48.980;8.138;2023-07-20T13:32:15;1.55;;;1.00;;
33993;SDS011;20673;48.980;8.138;2023-07-20T13:34:43;1.15;;;1.05;;
33993;SDS011;20673;48.980;8.138;2023-07-20T13:37:10;1.10;;;0.70;;
33993;SDS011;20673;48.980;8.138;2023-07-20T13:39:38;2.37;;;1.20;;
33993;SDS011;20673;48.980;8.138;2023-07-20T13:42:04;3.05;;;1.05;;
33993;SDS011;20673;48.980;8.138;2023-07-20T13:44:31;1.45;;;0.90;;
33993;SDS011;20673;48.980;8.138;2023-07-20T13:46:58;1.50;;;0.90;;
33993;SDS011;20673;48.980;8.138;2023-07-20T13:49:25;1.75;;;1.10;;
33993;SDS011;20673;48.980;8.138;2023-07-20T13:51:51;1.00;;;0.90;;
33993;SDS011;20673;48.980;8.138;2023-07-20T13:54:17;2.77;;;1.20;;
33993;SDS011;20673;48.980;8.138;2023-07-20T13:56:43;1.55;;;0.90;;
33993;SDS011;20673;48.980;8.138;2023-07-20T13:59:09;6.28;;;3.12;;
33993;SDS011;20673;48.980;8.138;2023-07-20T14:01:35;1.87;;;1.22;;
33993;SDS011;20673;48.980;8.138;2023-07-20T14:04:02;3.10;;;1.17;;
33993;SDS011;20673;48.980;8.138;2023-07-20T14:06:29;3.08;;;1.02;;
33993;SDS011;20673;48.980;8.138;2023-07-20T14:08:58;1.72;;;1.00;;
33993;SDS011;20673;48.980;8.138;2023-07-20T14:11:25;1.75;;;1.00;;
33993;SDS011;20673;48.980;8.138;2023-07-20T14:13:52;3.45;;;1.30;;
33993;SDS011;20673;48.980;8.138;2023-07-20T14:16:19;1.32;;;0.90;;
33993;SDS011;20673;48.980;8.138;2023-07-20T14:18:47;2.22;;;1.10;;
33993;SDS011;20673;48.980;8.138;2023-07-20T14:21:15;2.33;;;1.32;;
33993;SDS011;20673;48.980;8.138;2023-07-20T14:23:44;2.05;;;1.17;;
33993;SDS011;20673;48.980;8.138;2023-07-20T14:26:12;1.57;;;0.90;;
33993;SDS011;20673;48.980;8.138;2023-07-20T14:28:38;1.25;;;1.05;;
33993;SDS011;20673;48.980;8.138;2023-07-20T14:31:04;1.75;;;1.25;;
33993;SDS011;20673;48.980;8.138;2023-07-20T14:33:31;2.58;;;1.47;;
33993;SDS011;20673;48.980;8.138;2023-07-20T14:35:57;1.80;;;1.25;;
33993;SDS011;20673;48.980;8.138;2023-07-20T14:38:24;2.67;;;1.30;;
33993;SDS011;20673;48.980;8.138;2023-07-20T14:40:50;1.82;;;1.22;;
33993;SDS011;20673;48.980;8.138;2023-07-20T14:43:16;1.37;;;1.02;;
33993;SDS011;20673;48.980;8.138;2023-07-20T14:45:43;1.45;;;1.25;;
33993;SDS011;20673;48.980;8.138;2023-07-20T14:48:10;1.70;;;1.20;;
33993;SDS011;20673;48.980;8.138;2023-07-20T14:50:36;1.12;;;1.02;;
33993;SDS011;20673;48.980;8.138;2023-07-20T14:53:02;3.00;;;1.20;;
33993;SDS011;20673;48.980;8.138;2023-07-20T14:55:28;2.05;;;1.10;;
33993;SDS011;20673;48.980;8.138;2023-07-20T14:57:55;1.80;;;0.98;;
33993;SDS011;20673;48.980;8.138;2023-07-20T15:00:21;1.75;;;1.35;;
33993;SDS011;20673;48.980;8.138;2023-07-20T15:02:47;4.30;;;1.40;;
33993;SDS011;20673;48.980;8.138;2023-07-20T15:05:20;3.47;;;0.98;;
33993;SDS011;20673;48.980;8.138;2023-07-20T15:07:48;1.80;;;1.25;;
33993;SDS011;20673;48.980;8.138;2023-07-20T15:10:16;1.65;;;0.82;;